createdAt,value
2022-10-24T00:01:45.870Z,9.19
2022-10-24T00:04:41.696Z,9.15
2022-10-24T00:07:33.380Z,9.12
2022-10-24T00:10:25.426Z,9.07
2022-10-24T00:13:19.678Z,9.06
2022-10-24T00:16:12.728Z,9.02
2022-10-24T00:19:05.336Z,9.00
2022-10-24T00:21:57.601Z,8.99
2022-10-24T00:24:49.662Z,8.95
2022-10-24T00:27:41.898Z,8.92
2022-10-24T00:30:34.020Z,8.89
2022-10-24T00:33:27.022Z,8.86
2022-10-24T00:36:22.445Z,8.80
2022-10-24T00:39:15.090Z,8.79
2022-10-24T00:42:08.474Z,8.76
2022-10-24T00:45:00.597Z,8.74
2022-10-24T00:47:53.022Z,8.73
2022-10-24T00:50:46.342Z,8.72
2022-10-24T00:53:44.610Z,8.66
2022-10-24T00:56:41.260Z,8.59
2022-10-24T00:59:35.112Z,8.56
2022-10-24T01:02:27.512Z,8.54
2022-10-24T01:05:20.716Z,8.51
2022-10-24T01:08:23.440Z,8.49
2022-10-24T01:11:19.801Z,8.49
2022-10-24T01:14:20.810Z,8.46
2022-10-24T01:17:20.732Z,8.45
2022-10-24T01:20:40.177Z,8.43
2022-10-24T01:24:07.777Z,8.42
2022-10-24T01:27:09.467Z,8.37
2022-10-24T01:30:07.398Z,8.34
2022-10-24T01:33:03.748Z,8.34
2022-10-24T01:36:01.539Z,8.31
2022-10-24T01:39:00.480Z,8.28
2022-10-24T01:41:55.794Z,8.28
2022-10-24T01:44:51.272Z,8.25
2022-10-24T01:47:47.859Z,8.22
2022-10-24T01:50:43.802Z,8.19
2022-10-24T01:53:38.165Z,8.16
2022-10-24T01:56:30.439Z,8.15
2022-10-24T01:59:43.476Z,8.14
2022-10-24T02:02:41.011Z,8.12
2022-10-24T02:05:38.409Z,8.10
2022-10-24T02:08:35.367Z,8.06
2022-10-24T02:11:27.693Z,8.03
2022-10-24T02:14:25.774Z,8.02
2022-10-24T02:17:19.069Z,7.99
2022-10-24T02:20:14.789Z,7.98
2022-10-24T02:23:12.925Z,7.94
2022-10-24T02:26:08.590Z,7.90
2022-10-24T02:29:04.093Z,7.85
2022-10-24T02:31:59.581Z,7.83
2022-10-24T02:34:53.525Z,7.81
2022-10-24T02:37:48.363Z,7.81
2022-10-24T02:40:41.700Z,7.80
2022-10-24T02:43:34.749Z,7.79
2022-10-24T02:46:28.990Z,7.80
2022-10-24T02:49:21.275Z,7.77
2022-10-24T02:52:13.745Z,7.76
2022-10-24T02:55:04.520Z,7.74
2022-10-24T02:57:57.615Z,7.73
2022-10-24T03:00:50.252Z,7.69
2022-10-24T03:03:42.544Z,7.66
2022-10-24T03:06:34.898Z,7.61
2022-10-24T03:09:27.133Z,7.59
2022-10-24T03:12:19.341Z,7.57
2022-10-24T03:15:13.791Z,7.56
2022-10-24T03:18:06.152Z,7.49
2022-10-24T03:20:58.351Z,7.46
2022-10-24T03:23:51.198Z,7.43
2022-10-24T03:26:43.220Z,7.42
2022-10-24T03:29:35.750Z,7.40
2022-10-24T03:35:19.904Z,7.33
2022-10-24T03:38:11.934Z,7.31
2022-10-24T03:41:03.572Z,7.33
2022-10-24T03:43:55.254Z,7.33
2022-10-24T03:46:47.430Z,7.34
2022-10-24T03:49:39.272Z,7.34
2022-10-24T03:52:31.290Z,7.34
2022-10-24T03:55:23.729Z,7.33
2022-10-24T03:58:15.710Z,7.34
2022-10-24T04:01:10.562Z,7.33
2022-10-24T04:04:03.308Z,7.35
2022-10-24T04:06:55.541Z,7.34
2022-10-24T04:09:47.412Z,7.32
2022-10-24T04:12:39.511Z,7.31
2022-10-24T04:15:32.316Z,7.31
2022-10-24T04:18:24.165Z,7.30
2022-10-24T04:21:20.696Z,7.29
2022-10-24T04:24:14.282Z,7.29
2022-10-24T04:27:05.964Z,7.27
2022-10-24T04:29:57.210Z,7.26
2022-10-24T04:32:49.558Z,7.24
2022-10-24T04:35:42.002Z,7.22
2022-10-24T04:38:34.644Z,7.20
2022-10-24T04:41:26.473Z,7.20
2022-10-24T04:44:18.884Z,7.17
2022-10-24T04:47:10.669Z,7.17
2022-10-24T04:50:03.183Z,7.16
2022-10-24T04:52:55.212Z,7.14
2022-10-24T04:55:47.712Z,7.12
2022-10-24T04:58:39.331Z,7.11
2022-10-24T05:01:31.347Z,7.10
2022-10-24T05:04:23.747Z,7.10
2022-10-24T05:07:16.191Z,7.10
2022-10-24T05:10:09.812Z,7.09
2022-10-24T05:13:01.662Z,7.08
2022-10-24T05:15:53.789Z,7.11
2022-10-24T05:18:45.530Z,7.11
2022-10-24T05:21:37.582Z,7.13
2022-10-24T05:24:30.631Z,7.15
2022-10-24T05:27:24.923Z,7.18
2022-10-24T05:30:17.312Z,7.24
2022-10-24T05:33:09.794Z,7.28
2022-10-24T05:36:02.399Z,7.32
2022-10-24T05:38:54.682Z,7.39
2022-10-24T05:41:47.349Z,7.44
2022-10-24T05:44:40.633Z,7.49
2022-10-24T05:47:32.237Z,7.54
2022-10-24T05:50:24.643Z,7.59
2022-10-24T05:53:16.678Z,7.63
2022-10-24T05:56:10.086Z,7.68
2022-10-24T05:59:01.967Z,7.73
2022-10-24T06:01:55.278Z,7.78
2022-10-24T06:04:48.487Z,7.83
2022-10-24T06:07:37.952Z,7.90
2022-10-24T06:10:29.688Z,7.93
2022-10-24T06:13:21.926Z,7.99
2022-10-24T06:16:14.845Z,8.05
2022-10-24T06:19:07.516Z,8.14
2022-10-24T06:21:59.928Z,8.25
2022-10-24T06:24:51.773Z,8.32
2022-10-24T06:27:43.683Z,8.43
2022-10-24T06:30:35.955Z,8.51
2022-10-24T06:33:27.985Z,8.61
2022-10-24T06:36:19.842Z,8.73
2022-10-24T06:39:12.253Z,8.84
2022-10-24T06:42:04.800Z,8.98
2022-10-24T06:44:56.251Z,9.14
2022-10-24T06:47:51.757Z,9.28
2022-10-24T06:50:46.896Z,9.44
2022-10-24T06:53:39.137Z,9.63
2022-10-24T06:56:30.996Z,9.83
2022-10-24T06:59:23.440Z,10.01
2022-10-24T07:02:18.051Z,10.19
2022-10-24T07:05:13.073Z,10.37
2022-10-24T07:08:05.505Z,10.52
2022-10-24T07:10:57.502Z,10.68
2022-10-24T07:13:49.737Z,10.84
2022-10-24T07:16:42.727Z,10.96
2022-10-24T07:19:37.343Z,11.11
2022-10-24T07:22:32.581Z,11.24
2022-10-24T07:25:26.231Z,11.39
2022-10-24T07:28:16.245Z,11.53
2022-10-24T07:31:09.750Z,11.65
2022-10-24T07:34:03.743Z,11.78
2022-10-24T07:36:55.619Z,11.91
2022-10-24T07:39:47.446Z,12.08
2022-10-24T07:42:39.476Z,12.25
2022-10-24T07:45:32.556Z,12.43
2022-10-24T07:48:24.211Z,12.62
2022-10-24T07:51:17.989Z,12.84
2022-10-24T07:54:11.380Z,13.08
2022-10-24T07:57:03.527Z,13.29
2022-10-24T07:59:55.487Z,13.50
2022-10-24T08:05:42.951Z,13.91
2022-10-24T08:08:37.395Z,14.15
2022-10-24T08:11:33.108Z,14.37
2022-10-24T08:14:25.390Z,14.58
2022-10-24T08:17:21.730Z,14.80
2022-10-24T08:20:16.634Z,14.99
2022-10-24T08:23:09.707Z,15.20
2022-10-24T08:26:02.072Z,15.40
2022-10-24T08:28:55.555Z,15.61
2022-10-24T08:31:50.154Z,15.80
2022-10-24T08:34:42.917Z,16.02
2022-10-24T08:40:29.813Z,16.42
2022-10-24T08:43:23.354Z,16.59
2022-10-24T08:46:34.147Z,16.76
2022-10-24T08:49:39.287Z,16.94
2022-10-24T13:09:08.201Z,23.73
2022-10-24T13:12:20.160Z,23.75
2022-10-24T13:19:11.126Z,23.77
2022-10-24T13:21:58.313Z,23.78
2022-10-24T13:24:48.495Z,23.78
2022-10-24T13:27:37.805Z,23.76
2022-10-24T13:30:58.060Z,23.75
2022-10-24T13:33:52.780Z,23.73
2022-10-24T13:36:37.018Z,23.70
2022-10-24T13:39:34.293Z,23.68
2022-10-24T13:42:36.318Z,23.61
2022-10-24T13:45:33.274Z,23.58
2022-10-24T13:48:14.411Z,23.52
2022-10-24T13:51:10.721Z,23.47
2022-10-24T13:53:55.870Z,23.40
2022-10-24T13:56:47.753Z,23.33
2022-10-24T13:59:48.583Z,23.27
2022-10-24T14:02:32.605Z,23.21
2022-10-24T14:05:29.766Z,23.17
2022-10-24T14:08:21.964Z,23.11
2022-10-24T14:11:01.762Z,23.08
2022-10-24T14:13:52.145Z,23.02
2022-10-24T14:16:35.668Z,22.95
2022-10-24T14:19:28.369Z,22.89
2022-10-24T14:22:07.310Z,22.81
2022-10-24T14:24:48.359Z,22.75
2022-10-24T14:27:30.430Z,22.67
2022-10-24T14:30:34.514Z,22.60
2022-10-24T14:33:33.100Z,22.51
2022-10-24T14:36:19.517Z,22.41
2022-10-24T14:39:07.170Z,22.34
2022-10-24T14:41:50.909Z,22.25
2022-10-24T14:44:37.398Z,22.17
2022-10-24T14:47:31.844Z,22.08
2022-10-24T14:50:24.503Z,21.96
2022-10-24T14:53:02.905Z,21.87
2022-10-24T14:55:42.510Z,21.78
2022-10-24T14:58:43.716Z,21.68
2022-10-24T15:01:29.123Z,21.55
2022-10-24T15:04:08.305Z,21.45
2022-10-24T15:06:45.837Z,21.34
2022-10-24T15:09:30.073Z,21.22
2022-10-24T15:12:15.220Z,21.10
2022-10-24T15:14:52.342Z,20.96
2022-10-24T15:17:46.690Z,20.84
2022-10-24T15:20:36.474Z,20.70
2022-10-24T15:23:35.100Z,20.54
2022-10-24T15:26:25.691Z,20.39
2022-10-24T15:29:33.582Z,20.22
2022-10-24T15:32:18.520Z,20.08
2022-10-24T15:34:59.039Z,19.95
2022-10-24T15:37:32.175Z,19.83
2022-10-24T15:40:14.487Z,19.72
2022-10-24T15:42:47.810Z,19.57
2022-10-24T15:45:24.528Z,19.44
2022-10-24T15:47:58.063Z,19.31
2022-10-24T15:50:31.339Z,19.19
2022-10-24T15:53:08.049Z,19.05
2022-10-24T15:55:41.619Z,18.91
2022-10-24T15:58:17.677Z,18.78
2022-10-24T16:00:51.710Z,18.65
2022-10-24T16:03:25.730Z,18.52
2022-10-24T16:06:00.334Z,18.42
2022-10-24T16:08:33.517Z,18.28
2022-10-24T16:11:09.223Z,18.15
2022-10-24T16:13:43.313Z,18.03
2022-10-24T16:16:18.103Z,17.91
2022-10-24T16:18:54.238Z,17.80
2022-10-24T16:21:29.817Z,17.68
2022-10-24T16:24:06.285Z,17.57
2022-10-24T16:26:39.436Z,17.47
2022-10-24T16:29:12.461Z,17.38
2022-10-24T16:31:47.159Z,17.27
2022-10-24T16:34:20.925Z,17.18
2022-10-24T16:37:00.031Z,17.07
2022-10-24T16:39:34.614Z,16.96
2022-10-24T16:42:08.061Z,16.85
2022-10-24T16:44:41.332Z,16.76
2022-10-24T16:47:14.584Z,16.66
2022-10-24T16:49:47.937Z,16.56
2022-10-24T16:52:20.972Z,16.46
2022-10-24T16:54:54.733Z,16.38
2022-10-24T16:57:28.323Z,16.28
2022-10-24T17:00:06.477Z,16.20
2022-10-24T17:02:40.575Z,16.12
2022-10-24T17:05:14.410Z,16.03
2022-10-24T17:07:48.623Z,15.93
2022-10-24T17:10:25.742Z,15.86
2022-10-24T17:13:03.032Z,15.77
2022-10-24T17:15:42.301Z,15.69
2022-10-24T17:18:15.667Z,15.61
2022-10-24T17:20:49.878Z,15.52
2022-10-24T17:23:24.782Z,15.44
2022-10-24T17:26:02.619Z,15.36
2022-10-24T17:28:36.360Z,15.28
2022-10-24T17:31:10.587Z,15.20
2022-10-24T17:33:44.657Z,15.11
2022-10-24T17:36:25.828Z,15.03
2022-10-24T17:39:10.190Z,14.96
2022-10-24T17:41:45.822Z,14.89
2022-10-24T17:44:23.103Z,14.84
2022-10-24T17:46:58.351Z,14.77
2022-10-24T17:49:35.766Z,14.72
2022-10-24T17:52:21.004Z,14.65
2022-10-24T17:54:54.403Z,14.59
2022-10-24T17:57:29.948Z,14.53
2022-10-24T18:00:08.807Z,14.48
2022-10-24T18:05:42.614Z,14.36
2022-10-24T18:08:16.613Z,14.30
2022-10-24T18:10:50.618Z,14.23
2022-10-24T18:13:24.570Z,14.17
2022-10-24T18:15:58.146Z,14.11
2022-10-24T18:18:32.396Z,14.04
2022-10-24T18:21:12.531Z,13.97
2022-10-24T18:23:46.818Z,13.90
2022-10-24T18:26:22.787Z,13.86
2022-10-24T18:28:58.328Z,13.80
2022-10-24T18:31:34.394Z,13.73
2022-10-24T18:34:08.777Z,13.67
2022-10-24T18:36:45.246Z,13.62
2022-10-24T18:39:19.213Z,13.57
2022-10-24T18:41:57.962Z,13.50
2022-10-24T18:44:34.957Z,13.44
2022-10-24T18:47:12.580Z,13.38
2022-10-24T18:49:47.259Z,13.31
2022-10-24T18:52:32.234Z,13.27
2022-10-24T18:55:18.091Z,13.21
2022-10-24T18:57:52.786Z,13.16
2022-10-24T19:00:29.414Z,13.11
2022-10-24T19:03:19.400Z,13.07
2022-10-24T19:06:01.132Z,13.03
2022-10-24T19:08:36.770Z,12.98
2022-10-24T19:11:16.402Z,12.96
2022-10-24T19:13:51.048Z,12.92
2022-10-24T19:16:30.057Z,12.91
2022-10-24T19:19:07.615Z,12.88
2022-10-24T19:21:42.221Z,12.87
2022-10-24T19:24:16.875Z,12.83
2022-10-24T19:26:51.135Z,12.80
2022-10-24T19:29:25.302Z,12.77
2022-10-24T19:31:59.065Z,12.72
2022-10-24T19:34:33.579Z,12.70
2022-10-24T19:37:07.936Z,12.67
2022-10-24T19:39:41.683Z,12.64
2022-10-24T19:42:15.340Z,12.62
2022-10-24T19:44:54.717Z,12.58
2022-10-24T19:47:28.654Z,12.54
2022-10-24T19:50:02.122Z,12.51
2022-10-24T19:52:36.369Z,12.47
2022-10-24T19:55:11.394Z,12.43
2022-10-24T19:57:45.073Z,12.38
2022-10-24T20:00:21.259Z,12.32
2022-10-24T20:02:54.691Z,12.27
2022-10-24T20:05:28.255Z,12.23
2022-10-24T20:08:01.837Z,12.18
2022-10-24T20:10:35.585Z,12.13
2022-10-24T20:13:08.984Z,12.09
2022-10-24T20:15:42.865Z,12.05
2022-10-24T20:18:16.389Z,11.99
2022-10-24T20:20:50.289Z,11.96
2022-10-24T20:23:25.355Z,11.93
2022-10-24T20:26:04.801Z,11.92
2022-10-24T20:28:41.197Z,11.89
2022-10-24T20:31:21.366Z,11.86
2022-10-24T20:33:55.186Z,11.83
2022-10-24T20:36:28.884Z,11.82
2022-10-24T20:39:02.589Z,11.80
2022-10-24T20:41:36.912Z,11.78
2022-10-24T20:44:10.801Z,11.77
2022-10-24T20:46:44.365Z,11.77
2022-10-24T20:49:17.675Z,11.73
2022-10-24T20:51:51.189Z,11.74
2022-10-24T20:54:25.417Z,11.71
2022-10-24T20:56:59.018Z,11.70
2022-10-24T20:59:32.621Z,11.67
2022-10-24T21:02:08.385Z,11.64
2022-10-24T21:04:41.872Z,11.65
2022-10-24T21:07:15.771Z,11.63
2022-10-24T21:09:50.231Z,11.62
2022-10-24T21:12:23.684Z,11.61
2022-10-24T21:14:57.286Z,11.59
2022-10-24T21:17:30.685Z,11.59
2022-10-24T21:20:04.919Z,11.57
2022-10-24T21:22:38.494Z,11.57
2022-10-24T21:25:14.055Z,11.56
2022-10-24T21:27:47.995Z,11.56
2022-10-24T21:30:22.053Z,11.55
2022-10-24T21:32:55.683Z,11.55
2022-10-24T21:35:29.657Z,11.54
2022-10-24T21:38:03.369Z,11.53
2022-10-24T21:40:36.895Z,11.53
2022-10-24T21:43:10.401Z,11.53
2022-10-24T21:45:43.807Z,11.53
2022-10-24T21:48:18.076Z,11.52
2022-10-24T21:50:53.420Z,11.51
2022-10-24T21:53:27.218Z,11.49
2022-10-24T21:56:07.682Z,11.47
2022-10-24T21:58:42.149Z,11.44
2022-10-24T22:01:19.233Z,11.42
2022-10-24T22:03:53.212Z,11.40
2022-10-24T22:06:27.447Z,11.39
2022-10-24T22:09:01.075Z,11.37
2022-10-24T22:11:36.637Z,11.37
2022-10-24T22:14:12.566Z,11.34
2022-10-24T22:16:45.942Z,11.30
2022-10-24T22:19:21.247Z,11.29
2022-10-24T22:21:55.124Z,11.26
2022-10-24T22:24:28.556Z,11.24
2022-10-24T22:27:02.079Z,11.23
2022-10-24T22:29:35.541Z,11.20
2022-10-24T22:32:14.222Z,11.16
2022-10-24T22:34:50.006Z,11.14
2022-10-24T22:37:29.514Z,11.10
2022-10-24T22:40:05.145Z,11.10
2022-10-24T22:42:40.085Z,11.07
2022-10-24T22:45:17.437Z,11.06
2022-10-24T22:48:16.643Z,11.02
2022-10-24T22:50:54.944Z,11.02
2022-10-24T22:53:32.115Z,10.98
2022-10-24T22:56:27.697Z,10.97
2022-10-24T22:59:03.020Z,10.95
2022-10-24T23:01:57.076Z,10.92
2022-10-24T23:04:40.561Z,10.90
2022-10-24T23:07:27.640Z,10.89
2022-10-24T23:10:01.944Z,10.85
2022-10-24T23:12:37.442Z,10.82
2022-10-24T23:15:16.366Z,10.80
2022-10-24T23:17:52.097Z,10.79
2022-10-24T23:20:34.389Z,10.76
2022-10-24T23:23:17.147Z,10.73
2022-10-24T23:26:09.374Z,10.68
2022-10-24T23:28:51.977Z,10.65
2022-10-24T23:31:27.984Z,10.63
2022-10-24T23:34:03.683Z,10.60
2022-10-24T23:36:40.866Z,10.61
2022-10-24T23:39:16.543Z,10.59
2022-10-24T23:41:51.522Z,10.57
2022-10-24T23:44:26.215Z,10.55
2022-10-24T23:47:04.785Z,10.54
2022-10-24T23:49:45.556Z,10.53
2022-10-24T23:52:27.928Z,10.51
2022-10-24T23:55:00.236Z,10.50
2022-10-24T23:57:35.023Z,10.48
